XBO weather

Boulsa Airport
Boulsa, Namentenga, Burkina Faso

Public forecast

Using degrees Celsius for public forecast. Weather courtesy of forecast.io.

METAR (pilot weather report)

Closest report is Ouagadougou Airport, 58.2 nm (107.8 km) WSW. Retrieved 2019/03/25 05:00 UTC (10 minutes ago):

DFFD 250500Z 00000KT CAVOK 28/05 Q1009 NOSIG

TAF (pilot weather forecast)

Forecast is more than 6 hours old.

Closest forecast is Ouagadougou Airport, 58.2 nm (107.8 km) WSW. Retrieved 2019/03/24 18:21 UTC (11 hours ago):

TAF DFFD 241700Z 2418/2524 VRB08KT CAVOK PROB30 TEMPO 2506/2510 4000 HZ